Fremont, Wisconsin
Current Conditions -  °F | °C
As of 8:15 AM on Saturday 25 Oct 2014 (Local Time) from KPCZ Reporting Station
Clear Clear  
Wind Chill: 52°   Ceiling: Unl
Heat Index: 52°   Visibility: 10mi
Dew Point: 46°   Wind: 7mph
Humidity: 81%   Direction: 270°W
Pressure: 29.88"   Gusts: NA
Location:  44.26°N, 88.86°W
Report Text: KPCZ 251315Z AUTO 27006KT 10SM CLR 11/08 A2988 RMK AO2 T01110080
Loading
Personal Weather Stations






























Interactive Weather Map
Tropical Storm Tracking
New forecast layout! Learn more

10-Day Weather Forecast

Advertisements
Track Severe Weather on mobile